createdAt,value
2023-03-28T00:01:39.855Z,2.20
2023-03-28T00:04:12.980Z,2.40
2023-03-28T00:06:45.785Z,1.83
2023-03-28T00:09:15.578Z,1.90
2023-03-28T00:11:48.809Z,1.60
2023-03-28T00:14:18.624Z,1.80
2023-03-28T00:16:48.508Z,1.80
2023-03-28T00:19:20.820Z,1.50
2023-03-28T00:21:55.020Z,1.87
2023-03-28T00:24:30.942Z,2.10
2023-03-28T00:27:06.963Z,1.57
2023-03-28T00:29:37.209Z,2.10
2023-03-28T00:32:08.697Z,1.40
2023-03-28T00:34:38.596Z,1.80
2023-03-28T00:37:15.008Z,1.87
2023-03-28T00:39:50.263Z,1.97
2023-03-28T00:42:32.076Z,2.07
2023-03-28T00:45:02.254Z,1.70
2023-03-28T00:47:45.955Z,1.87
2023-03-28T00:50:20.869Z,1.97
2023-03-28T00:52:57.427Z,2.10
2023-03-28T00:55:46.980Z,1.67
2023-03-28T00:58:22.609Z,1.80
2023-03-28T01:00:56.272Z,1.77
2023-03-28T01:03:29.748Z,1.77
2023-03-28T01:06:02.040Z,2.50
2023-03-28T01:08:38.643Z,1.83
2023-03-28T01:11:09.612Z,2.10
2023-03-28T01:13:44.085Z,1.70
2023-03-28T01:16:15.574Z,2.27
2023-03-28T01:18:51.806Z,2.13
2023-03-28T01:21:55.166Z,1.90
2023-03-28T01:24:51.654Z,1.60
2023-03-28T01:27:26.233Z,2.40
2023-03-28T01:30:34.568Z,1.77
2023-03-28T01:33:45.743Z,2.17
2023-03-28T01:36:43.082Z,2.30
2023-03-28T01:39:19.204Z,1.77
2023-03-28T01:41:57.776Z,1.80
2023-03-28T01:44:35.908Z,2.00
2023-03-28T01:47:17.367Z,1.40
2023-03-28T01:49:53.596Z,2.13
2023-03-28T01:52:34.600Z,2.07
2023-03-28T01:55:11.816Z,1.37
2023-03-28T01:57:44.390Z,1.83
2023-03-28T02:00:22.342Z,2.13
2023-03-28T02:02:59.569Z,1.57
2023-03-28T02:05:31.800Z,1.83
2023-03-28T02:08:13.648Z,1.90
2023-03-28T02:10:49.318Z,2.03
2023-03-28T02:13:22.024Z,2.20
2023-03-28T02:15:57.596Z,2.10
2023-03-28T02:18:32.842Z,1.77
2023-03-28T02:21:09.238Z,1.60
2023-03-28T02:23:48.323Z,2.03
2023-03-28T02:26:18.622Z,2.03
2023-03-28T02:28:52.849Z,1.50
2023-03-28T02:31:24.664Z,1.53
2023-03-28T02:33:59.611Z,1.70
2023-03-28T02:36:57.166Z,1.83
2023-03-28T02:39:52.680Z,1.87
2023-03-28T02:42:54.511Z,2.00
2023-03-28T02:46:00.558Z,2.00
2023-03-28T02:48:52.303Z,1.60
2023-03-28T02:51:31.838Z,1.80
2023-03-28T02:54:15.958Z,1.40
2023-03-28T02:57:01.634Z,1.90
2023-03-28T02:59:37.942Z,1.33
2023-03-28T03:02:08.580Z,1.67
2023-03-28T03:04:38.670Z,1.30
2023-03-28T03:07:09.888Z,1.60
2023-03-28T03:09:40.656Z,1.53
2023-03-28T03:12:17.843Z,2.03
2023-03-28T03:14:50.971Z,1.60
2023-03-28T03:17:22.700Z,1.47
2023-03-28T03:19:53.943Z,1.27
2023-03-28T03:22:26.442Z,1.60
2023-03-28T03:24:58.079Z,1.70
2023-03-28T03:27:32.464Z,1.33
2023-03-28T03:30:02.816Z,1.77
2023-03-28T03:32:33.593Z,1.47
2023-03-28T03:35:03.755Z,1.50
2023-03-28T03:37:33.698Z,1.53
2023-03-28T03:40:05.889Z,1.80
2023-03-28T03:42:39.953Z,1.43
2023-03-28T03:45:13.637Z,1.40
2023-03-28T03:47:45.844Z,1.90
2023-03-28T03:50:16.198Z,1.83
2023-03-28T03:52:47.608Z,1.27
2023-03-28T03:55:18.357Z,1.30
2023-03-28T03:57:50.969Z,1.30
2023-03-28T04:00:21.154Z,1.70
2023-03-28T04:02:51.217Z,1.40
2023-03-28T04:05:21.089Z,1.50
2023-03-28T04:07:55.026Z,1.40
2023-03-28T04:10:25.082Z,1.70
2023-03-28T04:12:57.562Z,1.40
2023-03-28T04:15:27.398Z,1.87
2023-03-28T04:18:05.698Z,1.50
2023-03-28T04:20:40.678Z,1.87
2023-03-28T04:23:10.911Z,1.50
2023-03-28T04:25:41.954Z,1.63
2023-03-28T04:28:21.079Z,1.57
2023-03-28T04:30:53.561Z,1.43
2023-03-28T04:33:25.631Z,1.60
2023-03-28T04:36:00.793Z,1.70
2023-03-28T04:38:32.267Z,1.30
2023-03-28T04:41:06.280Z,1.10
2023-03-28T04:43:39.632Z,1.60
2023-03-28T04:46:10.001Z,1.73
2023-03-28T04:48:40.462Z,1.73
2023-03-28T04:51:11.354Z,1.40
2023-03-28T04:53:41.283Z,1.50
2023-03-28T04:56:14.123Z,1.90
2023-03-28T04:58:48.486Z,1.63
2023-03-28T05:01:18.708Z,1.40
2023-03-28T05:03:48.771Z,1.47
2023-03-28T05:06:21.893Z,1.97
2023-03-28T05:08:52.552Z,1.73
2023-03-28T05:11:24.368Z,2.00
2023-03-28T05:13:57.132Z,1.80
2023-03-28T05:16:26.946Z,2.00
2023-03-28T05:18:56.795Z,1.93
2023-03-28T05:21:29.208Z,1.50
2023-03-28T05:23:59.308Z,1.50
2023-03-28T05:26:29.163Z,2.60
2023-03-28T05:29:01.673Z,1.67
2023-03-28T05:31:34.956Z,1.87
2023-03-28T05:34:04.781Z,2.20
2023-03-28T05:36:34.604Z,1.63
2023-03-28T05:39:05.412Z,2.03
2023-03-28T05:41:38.195Z,1.80
2023-03-28T05:44:10.824Z,2.03
2023-03-28T05:46:40.864Z,1.70
2023-03-28T05:49:12.396Z,2.20
2023-03-28T05:51:42.246Z,1.50
2023-03-28T05:54:12.394Z,1.67
2023-03-28T05:56:42.414Z,1.40
2023-03-28T05:59:15.858Z,1.90
2023-03-28T06:01:46.810Z,1.73
2023-03-28T06:04:17.189Z,2.20
2023-03-28T06:06:48.873Z,1.63
2023-03-28T06:09:19.069Z,2.30
2023-03-28T06:11:49.049Z,1.80
2023-03-28T06:14:21.818Z,1.77
2023-03-28T06:16:51.988Z,1.67
2023-03-28T06:19:22.349Z,1.80
2023-03-28T06:21:53.468Z,1.60
2023-03-28T06:24:24.396Z,2.20
2023-03-28T06:27:00.501Z,1.70
2023-03-28T06:29:34.343Z,1.60
2023-03-28T06:32:04.467Z,1.73
2023-03-28T06:34:34.438Z,2.23
2023-03-28T06:40:35.672Z,3.23
2023-03-28T06:43:05.916Z,2.80
2023-03-28T06:45:38.534Z,2.80
2023-03-28T06:48:33.600Z,2.27
2023-03-28T06:51:26.166Z,1.90
2023-03-28T07:01:09.648Z,2.30
2023-03-28T07:03:51.451Z,2.20
2023-03-28T07:06:57.989Z,2.90
2023-03-28T07:10:07.908Z,2.37
2023-03-28T07:12:37.904Z,2.00
2023-03-28T07:15:17.822Z,2.33
2023-03-28T07:20:32.314Z,3.13
2023-03-28T07:23:18.080Z,2.20
2023-03-28T07:25:49.509Z,2.27
2023-03-28T07:32:08.609Z,1.80
2023-03-28T07:34:59.975Z,1.90
2023-03-28T07:37:35.150Z,2.23
2023-03-28T07:40:05.657Z,1.83
2023-03-28T07:42:37.075Z,2.17
2023-03-28T07:45:11.771Z,2.17
2023-03-28T07:50:45.633Z,1.83
2023-03-28T07:54:01.943Z,2.03
2023-03-28T07:57:12.274Z,2.00
2023-03-28T08:03:44.746Z,1.90
2023-03-28T08:06:39.223Z,2.17
2023-03-28T08:15:24.656Z,2.70
2023-03-28T08:17:56.092Z,1.77
2023-03-28T08:20:36.368Z,2.00
2023-03-28T08:23:15.002Z,1.53
2023-03-28T08:25:50.640Z,1.00
2023-03-28T08:28:26.359Z,2.20
2023-03-28T08:30:56.346Z,1.20
2023-03-28T08:33:30.078Z,1.23
2023-03-28T08:36:00.040Z,1.33
2023-03-28T08:38:30.038Z,1.70
2023-03-28T08:41:14.609Z,1.50
2023-03-28T08:43:59.379Z,1.40
2023-03-28T08:46:34.242Z,1.40
2023-03-28T08:49:22.212Z,1.73
2023-03-28T08:52:17.712Z,1.50
2023-03-28T08:55:12.055Z,1.60
2023-03-28T08:58:02.819Z,1.30
2023-03-28T09:01:17.457Z,1.60
2023-03-28T09:03:47.391Z,1.30
2023-03-28T09:06:27.278Z,1.30
2023-03-28T09:09:32.558Z,1.30
2023-03-28T09:12:10.866Z,1.60
2023-03-28T09:15:16.592Z,1.30
2023-03-28T09:18:13.124Z,1.90
2023-03-28T09:21:14.715Z,1.37
2023-03-28T09:30:52.161Z,1.83
2023-03-28T09:33:28.240Z,3.53
2023-03-28T09:41:41.985Z,1.80
2023-03-28T09:44:16.057Z,2.07
2023-03-28T09:46:51.201Z,1.40
2023-03-28T09:49:24.642Z,1.20
2023-03-28T09:51:57.762Z,1.63
2023-03-28T09:54:33.117Z,1.20
2023-03-28T09:57:06.095Z,1.30
2023-03-28T09:59:37.786Z,1.20
2023-03-28T10:02:29.185Z,1.83
2023-03-28T10:04:59.342Z,3.03
2023-03-28T10:07:35.664Z,1.73
2023-03-28T10:13:02.508Z,1.47
2023-03-28T10:21:57.119Z,2.40
2023-03-28T10:24:28.423Z,2.13
2023-03-28T10:27:01.305Z,2.33
2023-03-28T10:29:31.583Z,2.20
2023-03-28T10:32:27.473Z,5.30
2023-03-28T10:37:38.663Z,2.10
2023-03-28T10:40:29.413Z,1.53
2023-03-28T10:43:00.314Z,1.50
2023-03-28T10:45:37.482Z,1.20
2023-03-28T10:48:16.221Z,1.80
2023-03-28T10:50:49.276Z,2.07
2023-03-28T10:53:49.589Z,2.07
2023-03-28T10:56:29.552Z,2.50
2023-03-28T10:59:15.036Z,2.30
2023-03-28T11:05:07.487Z,2.27
2023-03-28T11:07:45.796Z,2.60
2023-03-28T11:10:26.503Z,2.87
2023-03-28T11:13:29.445Z,2.60
2023-03-28T11:16:30.293Z,2.50
2023-03-28T11:19:12.647Z,3.00
2023-03-28T11:21:53.144Z,2.73
2023-03-28T11:24:32.529Z,2.57
2023-03-28T11:27:16.294Z,2.87
2023-03-28T11:29:49.974Z,2.83
2023-03-28T11:32:24.489Z,3.33
2023-03-28T11:35:05.870Z,3.17
2023-03-28T11:37:42.952Z,2.97
2023-03-28T11:40:25.724Z,2.80
2023-03-28T11:43:03.334Z,2.63
2023-03-28T11:45:50.454Z,2.80
2023-03-28T11:48:28.070Z,3.60
2023-03-28T11:51:05.907Z,2.93
2023-03-28T11:53:40.665Z,2.70
2023-03-28T11:56:23.611Z,2.53
2023-03-28T11:59:02.481Z,2.60
2023-03-28T12:01:35.883Z,2.73
2023-03-28T12:04:15.342Z,2.40
2023-03-28T12:07:02.224Z,2.80
2023-03-28T12:09:40.275Z,2.47
2023-03-28T12:12:20.394Z,2.40
2023-03-28T12:15:00.389Z,2.43
2023-03-28T12:25:33.812Z,3.10
2023-03-28T12:28:10.373Z,2.83
2023-03-28T12:30:49.118Z,3.00
2023-03-28T12:33:31.043Z,2.80
2023-03-28T12:36:10.743Z,2.87
2023-03-28T12:38:45.011Z,3.33
2023-03-28T12:41:18.218Z,2.80
2023-03-28T12:43:55.215Z,2.90
2023-03-28T12:46:31.285Z,2.80
2023-03-28T12:49:04.758Z,3.27
2023-03-28T12:51:39.726Z,2.93
2023-03-28T12:54:13.299Z,3.23
2023-03-28T12:56:43.892Z,3.30
2023-03-28T12:59:52.700Z,3.53
2023-03-28T13:02:34.600Z,3.70
2023-03-28T13:05:14.073Z,3.23
2023-03-28T13:08:00.718Z,3.50
2023-03-28T13:10:37.382Z,3.27
2023-03-28T13:13:20.001Z,3.43
2023-03-28T13:15:59.411Z,3.27
2023-03-28T13:18:51.521Z,3.20
2023-03-28T13:27:33.083Z,3.60
2023-03-28T13:30:10.976Z,3.20
2023-03-28T13:32:46.325Z,3.60
2023-03-28T13:35:47.790Z,4.57
2023-03-28T13:38:26.211Z,3.87
2023-03-28T13:40:59.939Z,3.17
2023-03-28T13:43:43.767Z,3.57
2023-03-28T13:46:17.175Z,3.83
2023-03-28T13:48:53.369Z,3.93
2023-03-28T13:51:29.509Z,3.60
2023-03-28T13:53:59.488Z,4.37
2023-03-28T13:56:33.095Z,3.90
2023-03-28T13:59:07.256Z,3.73
2023-03-28T14:01:38.923Z,3.73
2023-03-28T14:04:13.853Z,4.07
2023-03-28T14:06:52.866Z,3.40
2023-03-28T14:09:24.929Z,4.30
2023-03-28T14:11:55.095Z,4.00
2023-03-28T14:14:32.804Z,4.17
2023-03-28T14:17:04.566Z,3.50
2023-03-28T14:19:41.497Z,3.70
2023-03-28T14:22:18.723Z,3.60
2023-03-28T14:24:52.451Z,3.87
2023-03-28T14:27:37.493Z,4.63
2023-03-28T14:30:21.185Z,4.10
2023-03-28T14:33:02.029Z,3.30
2023-03-28T14:35:33.814Z,4.00
2023-03-28T14:38:09.664Z,3.50
2023-03-28T14:40:44.342Z,3.90
2023-03-28T14:43:27.349Z,4.10
2023-03-28T14:46:03.089Z,3.63
2023-03-28T14:48:33.595Z,3.80
2023-03-28T14:51:07.598Z,4.00
2023-03-28T14:53:45.994Z,3.93
2023-03-28T14:56:20.380Z,3.63
2023-03-28T14:58:53.126Z,4.03
2023-03-28T15:01:25.845Z,3.83
2023-03-28T15:03:59.550Z,4.23
2023-03-28T15:06:29.899Z,4.50
2023-03-28T15:09:12.639Z,3.97
2023-03-28T15:14:37.138Z,3.17
2023-03-28T15:17:09.663Z,3.37
2023-03-28T15:19:51.475Z,7.20
2023-03-28T15:22:26.843Z,3.27
2023-03-28T15:25:01.053Z,3.43
2023-03-28T15:27:34.767Z,3.10
2023-03-28T15:44:41.963Z,7.80
2023-03-28T15:47:22.069Z,3.80
2023-03-28T15:49:52.636Z,3.57
2023-03-28T15:52:24.327Z,3.40
2023-03-28T15:54:56.858Z,4.10
2023-03-28T15:57:32.965Z,3.50
2023-03-28T16:00:03.212Z,3.07
2023-03-28T16:02:37.554Z,3.43
2023-03-28T16:05:29.014Z,3.57
2023-03-28T16:08:00.287Z,3.30
2023-03-28T16:10:30.382Z,3.10
2023-03-28T16:13:03.501Z,3.37
2023-03-28T16:15:33.790Z,3.83
2023-03-28T16:18:03.811Z,4.20
2023-03-28T16:20:33.802Z,3.40
2023-03-28T16:23:04.461Z,4.10
2023-03-28T16:25:34.336Z,3.93
2023-03-28T16:28:07.041Z,3.90
2023-03-28T16:30:40.734Z,3.93
2023-03-28T16:33:10.861Z,3.93
2023-03-28T16:35:40.958Z,3.60
2023-03-28T16:38:14.236Z,4.23
2023-03-28T16:40:45.586Z,4.13
2023-03-28T16:43:18.474Z,4.20
2023-03-28T16:45:52.523Z,4.17
2023-03-28T16:48:22.555Z,4.40
2023-03-28T16:50:56.308Z,3.80
2023-03-28T16:53:29.731Z,4.10
2023-03-28T16:55:59.887Z,3.57
2023-03-28T16:58:41.890Z,3.23
2023-03-28T17:01:18.107Z,3.77
2023-03-28T17:03:48.402Z,3.00
2023-03-28T17:06:27.734Z,3.20
2023-03-28T17:08:59.017Z,3.17
2023-03-28T17:11:30.662Z,3.13
2023-03-28T17:14:03.093Z,3.10
2023-03-28T17:16:32.978Z,2.83
2023-03-28T17:19:02.954Z,3.87
2023-03-28T17:24:25.910Z,3.83
2023-03-28T17:26:56.267Z,3.40
2023-03-28T17:29:30.348Z,3.53
2023-03-28T17:32:00.299Z,3.63
2023-03-28T17:34:32.078Z,3.20
2023-03-28T17:37:02.428Z,3.43
2023-03-28T17:39:32.989Z,3.37
2023-03-28T17:42:02.803Z,4.03
2023-03-28T17:44:35.577Z,3.30
2023-03-28T17:47:05.497Z,3.57
2023-03-28T17:49:36.100Z,3.00
2023-03-28T17:52:06.384Z,3.80
2023-03-28T17:54:36.366Z,3.10
2023-03-28T17:57:08.218Z,3.70
2023-03-28T17:59:40.767Z,3.67
2023-03-28T18:02:10.646Z,3.70
2023-03-28T18:04:40.711Z,3.73
2023-03-28T18:07:16.461Z,3.80
2023-03-28T18:09:53.595Z,4.33
2023-03-28T18:12:23.455Z,4.33
2023-03-28T18:14:59.509Z,9.17
2023-03-28T18:17:31.024Z,4.63
2023-03-28T18:20:02.031Z,7.43
2023-03-28T18:22:32.125Z,4.60
2023-03-28T18:25:03.221Z,4.47
2023-03-28T18:27:33.104Z,4.60
2023-03-28T18:30:08.444Z,4.10
2023-03-28T18:32:39.384Z,4.70
2023-03-28T18:35:10.420Z,3.90
2023-03-28T18:37:46.688Z,4.03
2023-03-28T18:40:17.156Z,4.50
2023-03-28T18:42:47.146Z,4.30
2023-03-28T18:45:19.773Z,4.20
2023-03-28T18:47:49.617Z,4.17
2023-03-28T18:50:19.726Z,5.23
2023-03-28T18:52:49.514Z,4.57
2023-03-28T18:55:19.740Z,4.87
2023-03-28T18:57:49.537Z,4.43
2023-03-28T19:00:22.986Z,4.70
2023-03-28T19:02:53.309Z,4.40
2023-03-28T19:05:24.760Z,4.23
2023-03-28T19:07:55.763Z,4.70
2023-03-28T19:10:26.218Z,4.57
2023-03-28T19:12:56.365Z,4.70
2023-03-28T19:15:29.057Z,4.87
2023-03-28T19:18:02.984Z,4.83
2023-03-28T19:20:32.904Z,4.47
2023-03-28T19:23:02.811Z,5.17
2023-03-28T19:25:34.762Z,4.93
2023-03-28T19:28:09.276Z,5.40
2023-03-28T19:30:43.996Z,5.07
2023-03-28T19:33:14.539Z,4.97
2023-03-28T19:35:44.817Z,4.70
2023-03-28T19:38:18.459Z,4.93
2023-03-28T19:40:48.352Z,4.90
2023-03-28T19:43:24.061Z,5.20
2023-03-28T19:45:56.743Z,5.10
2023-03-28T19:48:28.290Z,5.30
2023-03-28T19:50:58.088Z,4.90
2023-03-28T19:53:27.990Z,5.20
2023-03-28T19:55:59.418Z,5.30
2023-03-28T19:58:31.231Z,5.43
2023-03-28T20:01:04.245Z,5.43
2023-03-28T20:03:34.302Z,5.03
2023-03-28T20:06:09.328Z,5.10
2023-03-28T20:08:39.314Z,4.90
2023-03-28T20:11:15.020Z,5.43
2023-03-28T20:13:45.063Z,5.37
2023-03-28T20:16:17.572Z,5.30
2023-03-28T20:18:49.287Z,5.30
2023-03-28T20:21:23.597Z,5.30
2023-03-28T20:23:55.182Z,5.20
2023-03-28T20:26:27.344Z,5.70
2023-03-28T20:28:59.637Z,4.87
2023-03-28T20:31:32.218Z,5.20
2023-03-28T20:34:03.141Z,4.80
2023-03-28T20:36:33.564Z,4.90
2023-03-28T20:39:03.938Z,5.97
2023-03-28T20:41:33.932Z,5.20
2023-03-28T20:44:06.062Z,5.00
2023-03-28T20:46:42.463Z,5.10
2023-03-28T20:49:12.275Z,5.70
2023-03-28T20:51:44.193Z,5.27
2023-03-28T20:54:14.168Z,5.73
2023-03-28T20:56:47.024Z,5.00
2023-03-28T20:59:16.795Z,5.07
2023-03-28T21:01:49.652Z,5.30
2023-03-28T21:04:19.417Z,5.07
2023-03-28T21:06:50.381Z,5.20
2023-03-28T21:09:20.862Z,5.07
2023-03-28T21:11:50.618Z,4.90
2023-03-28T21:14:20.656Z,4.80
2023-03-28T21:16:56.895Z,4.73
2023-03-28T21:19:29.213Z,4.83
2023-03-28T21:21:59.467Z,4.53
2023-03-28T21:24:29.294Z,4.83
2023-03-28T21:26:59.083Z,4.77
2023-03-28T21:29:28.855Z,5.13
2023-03-28T21:32:01.324Z,4.73
2023-03-28T21:34:34.191Z,4.60
2023-03-28T21:37:04.004Z,4.57
2023-03-28T21:39:33.806Z,4.37
2023-03-28T21:42:03.591Z,4.87
2023-03-28T21:44:33.777Z,5.10
2023-03-28T21:47:09.105Z,4.67
2023-03-28T21:49:39.314Z,5.10
2023-03-28T21:52:09.491Z,4.90
2023-03-28T21:54:39.265Z,5.07
2023-03-28T21:57:09.104Z,5.17
2023-03-28T21:59:41.254Z,5.20
2023-03-28T22:02:13.832Z,5.40
2023-03-28T22:04:44.195Z,5.17
2023-03-28T22:07:13.958Z,5.20
2023-03-28T22:09:44.810Z,4.63
2023-03-28T22:12:15.055Z,4.93
2023-03-28T22:14:44.816Z,4.70
2023-03-28T22:17:18.740Z,5.20
2023-03-28T22:19:54.075Z,4.80
2023-03-28T22:22:28.354Z,5.07
2023-03-28T22:24:58.720Z,4.07
2023-03-28T22:27:30.430Z,4.77
2023-03-28T22:30:00.569Z,4.67
2023-03-28T22:32:32.980Z,4.67
2023-03-28T22:35:02.907Z,5.07
2023-03-28T22:37:32.682Z,4.97
2023-03-28T22:40:02.523Z,5.03
2023-03-28T22:42:33.085Z,5.13
2023-03-28T22:45:02.871Z,5.13
2023-03-28T22:47:39.696Z,4.10
2023-03-28T22:50:11.963Z,4.83
2023-03-28T22:52:42.155Z,4.50
2023-03-28T22:55:13.779Z,4.70
2023-03-28T22:57:44.729Z,4.47
2023-03-28T23:00:17.489Z,4.73
2023-03-28T23:02:49.948Z,4.43
2023-03-28T23:05:21.769Z,4.80
2023-03-28T23:07:55.719Z,4.70
2023-03-28T23:10:25.529Z,4.13
2023-03-28T23:12:55.305Z,4.00
2023-03-28T23:15:25.362Z,4.67
2023-03-28T23:17:58.271Z,4.40
2023-03-28T23:20:30.482Z,4.50
2023-03-28T23:23:00.246Z,4.37
2023-03-28T23:25:30.878Z,3.97
2023-03-28T23:28:00.693Z,4.00
2023-03-28T23:30:30.465Z,3.93
2023-03-28T23:33:03.024Z,3.83
2023-03-28T23:35:32.962Z,3.97
2023-03-28T23:38:02.800Z,3.50
2023-03-28T23:40:32.593Z,4.07
2023-03-28T23:43:02.389Z,3.73
2023-03-28T23:45:32.235Z,4.20
2023-03-28T23:48:04.770Z,3.47
2023-03-28T23:50:36.342Z,3.67
2023-03-28T23:53:06.747Z,3.77
2023-03-28T23:55:36.640Z,3.83
2023-03-28T23:58:06.957Z,3.40
